createdAt,value
2022-12-11T00:00:58.519Z,2.60
2022-12-11T00:03:26.528Z,2.60
2022-12-11T00:05:54.516Z,2.80
2022-12-11T00:08:22.499Z,2.90
2022-12-11T00:10:51.068Z,2.80
2022-12-11T00:13:19.021Z,2.70
2022-12-11T00:15:48.363Z,2.70
2022-12-11T00:18:16.345Z,2.80
2022-12-11T00:20:44.369Z,2.70
2022-12-11T00:23:12.404Z,2.90
2022-12-11T00:25:44.016Z,2.80
2022-12-11T00:28:12.384Z,2.80
2022-12-11T00:30:41.732Z,2.70
2022-12-11T00:33:11.807Z,2.70
2022-12-11T00:35:40.307Z,2.50
2022-12-11T00:38:08.516Z,2.50
2022-12-11T00:40:37.327Z,2.40
2022-12-11T00:43:05.366Z,2.60
2022-12-11T00:45:37.353Z,2.60
2022-12-11T00:48:06.050Z,2.70
2022-12-11T00:50:35.691Z,2.40
2022-12-11T00:53:03.836Z,2.30
2022-12-11T00:55:31.859Z,2.40
2022-12-11T00:57:59.823Z,2.40
2022-12-11T01:00:27.820Z,2.40
2022-12-11T01:02:55.852Z,2.50
2022-12-11T01:05:23.919Z,2.50
2022-12-11T01:07:53.326Z,2.60
2022-12-11T01:10:26.623Z,2.60
2022-12-11T01:12:58.028Z,2.50
2022-12-11T01:15:27.699Z,2.60
2022-12-11T01:17:56.039Z,2.60
2022-12-11T01:20:25.436Z,2.60
2022-12-11T01:22:56.207Z,2.40
2022-12-11T01:25:25.004Z,2.20
2022-12-11T01:27:54.167Z,2.30
2022-12-11T01:30:24.640Z,2.50
2022-12-11T01:32:53.189Z,2.40
2022-12-11T01:35:21.637Z,2.60
2022-12-11T01:37:49.699Z,2.40
2022-12-11T01:40:20.542Z,2.30
2022-12-11T01:42:48.565Z,2.30
2022-12-11T01:45:34.117Z,2.40
2022-12-11T01:48:06.738Z,2.50
2022-12-11T01:50:40.579Z,2.60
2022-12-11T01:53:11.991Z,2.50
2022-12-11T01:55:41.893Z,2.50
2022-12-11T01:58:11.787Z,2.50
2022-12-11T02:00:41.325Z,2.40
2022-12-11T02:03:09.922Z,2.40
2022-12-11T02:05:38.376Z,2.20
2022-12-11T02:08:08.779Z,2.30
2022-12-11T02:10:59.594Z,2.30
2022-12-11T02:13:35.942Z,2.30
2022-12-11T02:16:11.592Z,2.30
2022-12-11T02:18:48.574Z,2.30
2022-12-11T02:21:21.888Z,2.40
2022-12-11T02:24:31.747Z,2.40
2022-12-11T02:27:31.721Z,2.40
2022-12-11T02:30:05.047Z,2.50
2022-12-11T02:32:38.162Z,2.50
2022-12-11T02:35:11.682Z,2.50
2022-12-11T02:37:42.265Z,2.70
2022-12-11T02:40:14.513Z,2.80
2022-12-11T02:42:48.668Z,2.80
2022-12-11T02:45:19.669Z,2.60
2022-12-11T02:47:49.988Z,2.60
2022-12-11T02:50:23.418Z,2.50
2022-12-11T02:52:55.804Z,2.50
2022-12-11T02:55:25.403Z,2.40
2022-12-11T02:57:57.618Z,2.40
2022-12-11T03:00:27.049Z,2.40
2022-12-11T03:02:55.319Z,2.40
2022-12-11T03:05:23.370Z,2.20
2022-12-11T03:07:51.436Z,2.10
2022-12-11T03:10:20.891Z,2.20
2022-12-11T03:12:53.568Z,2.10
2022-12-11T03:15:24.556Z,2.00
2022-12-11T03:18:01.974Z,2.10
2022-12-11T03:20:38.070Z,2.10
2022-12-11T03:23:17.183Z,2.10
2022-12-11T03:25:51.587Z,1.90
2022-12-11T03:28:23.125Z,2.00
2022-12-11T03:30:53.724Z,2.10
2022-12-11T03:33:27.721Z,2.20
2022-12-11T03:35:58.562Z,2.30
2022-12-11T03:38:33.096Z,2.30
2022-12-11T03:41:04.369Z,2.20
2022-12-11T03:43:33.471Z,2.20
2022-12-11T03:46:02.476Z,2.30
2022-12-11T03:48:37.150Z,2.20
2022-12-11T03:51:07.724Z,2.00
2022-12-11T03:53:37.347Z,1.90
2022-12-11T03:56:07.237Z,1.80
2022-12-11T03:58:35.210Z,1.70
2022-12-11T04:01:03.215Z,1.70
2022-12-11T04:03:32.590Z,1.80
2022-12-11T04:06:00.585Z,1.80
2022-12-11T04:08:28.563Z,1.90
2022-12-11T04:11:10.495Z,2.00
2022-12-11T04:13:38.689Z,2.00
2022-12-11T04:16:06.459Z,2.10
2022-12-11T04:18:53.694Z,2.10
2022-12-11T04:21:39.892Z,1.90
2022-12-11T04:24:17.466Z,1.80
2022-12-11T04:26:46.881Z,1.70
2022-12-11T04:29:15.506Z,1.70
2022-12-11T04:31:43.513Z,1.80
2022-12-11T04:34:13.125Z,1.90
2022-12-11T04:36:41.103Z,1.90
2022-12-11T04:39:09.230Z,2.00
2022-12-11T04:41:37.240Z,2.10
2022-12-11T04:44:05.596Z,2.10
2022-12-11T04:46:34.317Z,2.00
2022-12-11T04:49:02.476Z,2.00
2022-12-11T04:51:31.856Z,2.00
2022-12-11T04:54:00.256Z,2.10
2022-12-11T04:56:28.242Z,2.10
2022-12-11T04:58:56.192Z,2.00
2022-12-11T05:01:24.818Z,2.00
2022-12-11T05:03:52.993Z,2.00
2022-12-11T05:06:21.027Z,1.90
2022-12-11T05:08:50.343Z,1.80
2022-12-11T05:11:19.473Z,1.90
2022-12-11T05:13:47.927Z,1.90
2022-12-11T05:16:17.546Z,1.80
2022-12-11T05:18:45.618Z,1.80
2022-12-11T05:21:15.888Z,1.80
2022-12-11T05:23:44.049Z,1.70
2022-12-11T05:26:17.077Z,1.70
2022-12-11T05:28:45.960Z,1.70
2022-12-11T05:31:17.142Z,1.70
2022-12-11T05:33:46.484Z,1.70
2022-12-11T05:36:18.302Z,1.70
2022-12-11T05:38:46.586Z,1.80
2022-12-11T05:41:18.057Z,1.70
2022-12-11T05:43:46.441Z,1.80
2022-12-11T05:46:16.839Z,1.90
2022-12-11T05:48:46.568Z,1.90
2022-12-11T05:51:15.873Z,1.80
2022-12-11T05:53:45.379Z,1.80
2022-12-11T05:56:17.551Z,1.80
2022-12-11T05:58:48.702Z,1.80
2022-12-11T06:01:18.806Z,1.60
2022-12-11T06:03:46.895Z,1.60
2022-12-11T06:06:15.594Z,1.60
2022-12-11T06:08:43.640Z,1.60
2022-12-11T06:11:19.562Z,1.50
2022-12-11T06:13:50.428Z,1.60
2022-12-11T06:16:18.447Z,1.70
2022-12-11T06:18:46.986Z,1.50
2022-12-11T06:21:16.318Z,1.40
2022-12-11T06:23:45.555Z,1.20
2022-12-11T06:26:15.205Z,1.20
2022-12-11T06:28:43.174Z,1.20
2022-12-11T06:31:11.248Z,1.20
2022-12-11T06:33:39.763Z,1.20
2022-12-11T06:36:10.546Z,1.20
2022-12-11T06:38:38.759Z,1.30
2022-12-11T06:41:08.592Z,1.10
2022-12-11T06:43:40.195Z,1.10
2022-12-11T06:46:09.784Z,1.10
2022-12-11T06:48:38.046Z,1.10
2022-12-11T06:51:10.310Z,1.10
2022-12-11T06:53:39.339Z,1.10
2022-12-11T06:56:09.986Z,1.10
2022-12-11T06:58:40.701Z,1.00
2022-12-11T07:01:16.893Z,1.00
2022-12-11T07:03:45.363Z,1.00
2022-12-11T07:06:13.842Z,1.00
2022-12-11T07:08:41.891Z,1.70
2022-12-11T07:11:12.505Z,0.90
2022-12-11T07:13:43.035Z,0.90
2022-12-11T07:16:13.103Z,1.00
2022-12-11T07:18:42.835Z,1.00
2022-12-11T07:21:12.895Z,1.10
2022-12-11T07:23:41.364Z,1.10
2022-12-11T07:26:10.951Z,1.20
2022-12-11T07:28:38.935Z,1.40
2022-12-11T07:31:08.945Z,1.40
2022-12-11T07:33:37.200Z,1.40
2022-12-11T07:36:08.055Z,1.40
2022-12-11T07:38:36.062Z,1.20
2022-12-11T07:41:05.385Z,1.20
2022-12-11T07:43:33.710Z,1.30
2022-12-11T07:46:03.260Z,1.30
2022-12-11T07:48:32.744Z,1.30
2022-12-11T07:51:10.270Z,1.20
2022-12-11T07:53:38.401Z,1.30
2022-12-11T07:56:07.129Z,1.20
2022-12-11T07:58:36.056Z,1.30
2022-12-11T08:01:04.057Z,1.30
2022-12-11T08:03:33.437Z,1.20
2022-12-11T08:06:01.421Z,1.20
2022-12-11T08:08:29.406Z,1.20
2022-12-11T08:10:57.400Z,1.10
2022-12-11T08:13:25.358Z,0.90
2022-12-11T08:15:54.880Z,0.90
2022-12-11T08:18:23.040Z,1.00
2022-12-11T08:20:52.572Z,0.90
2022-12-11T08:23:20.566Z,1.10
2022-12-11T08:25:48.508Z,1.00
2022-12-11T08:28:16.479Z,0.90
2022-12-11T08:30:44.511Z,1.00
2022-12-11T08:33:12.477Z,1.10
2022-12-11T08:35:40.710Z,1.20
2022-12-11T08:38:10.040Z,1.20
2022-12-11T08:40:37.974Z,1.00
2022-12-11T08:43:06.045Z,1.00
2022-12-11T08:45:34.015Z,1.00
2022-12-11T08:48:02.015Z,0.70
2022-12-11T08:50:29.973Z,1.00
2022-12-11T08:52:58.566Z,0.90
2022-12-11T08:55:28.022Z,0.90
2022-12-11T08:57:56.245Z,1.00
2022-12-11T09:00:24.254Z,0.90
2022-12-11T09:02:52.259Z,1.00
2022-12-11T09:05:20.239Z,0.90
2022-12-11T09:07:48.370Z,0.90
2022-12-11T09:10:16.460Z,1.00
2022-12-11T09:12:45.793Z,1.00
2022-12-11T09:15:14.105Z,1.10
2022-12-11T09:17:42.182Z,1.00
2022-12-11T09:20:10.690Z,0.90
2022-12-11T09:22:38.687Z,1.10
2022-12-11T09:25:07.744Z,1.80
2022-12-11T09:27:35.865Z,1.10
2022-12-11T09:30:06.035Z,1.10
2022-12-11T09:32:34.074Z,1.10
2022-12-11T09:35:02.039Z,1.10
2022-12-11T09:37:29.966Z,1.10
2022-12-11T09:40:01.278Z,1.00
2022-12-11T09:42:39.617Z,1.10
2022-12-11T09:45:16.202Z,1.10
2022-12-11T09:47:46.851Z,1.10
2022-12-11T09:50:19.431Z,0.80
2022-12-11T09:52:59.554Z,0.80
2022-12-11T09:55:36.732Z,0.90
2022-12-11T09:58:14.372Z,0.90
2022-12-11T10:00:48.220Z,1.00
2022-12-11T10:03:46.135Z,1.00
2022-12-11T10:06:22.082Z,1.10
2022-12-11T10:09:00.958Z,1.20
2022-12-11T10:11:56.976Z,1.40
2022-12-11T10:14:34.997Z,1.50
2022-12-11T10:17:12.025Z,2.00
2022-12-11T10:19:42.100Z,1.30
2022-12-11T10:22:19.001Z,1.30
2022-12-11T10:27:42.378Z,1.40
2022-12-11T10:30:17.745Z,1.30
2022-12-11T10:32:52.942Z,1.30
2022-12-11T10:35:30.789Z,1.30
2022-12-11T10:38:06.201Z,1.30
2022-12-11T10:40:36.427Z,1.30
2022-12-11T10:43:04.384Z,1.50
2022-12-11T10:45:32.401Z,1.40
2022-12-11T10:48:06.117Z,1.60
2022-12-11T10:50:34.298Z,1.50
2022-12-11T10:53:02.575Z,1.20
2022-12-11T10:55:38.556Z,0.90
2022-12-11T10:58:07.511Z,0.70
2022-12-11T11:00:38.123Z,0.60
2022-12-11T11:03:20.954Z,0.60
2022-12-11T11:05:50.611Z,0.60
2022-12-11T11:08:20.378Z,0.50
2022-12-11T11:10:55.969Z,0.60
2022-12-11T11:13:25.080Z,0.60
2022-12-11T11:16:01.506Z,0.60
2022-12-11T11:18:32.727Z,0.70
2022-12-11T11:21:01.882Z,0.70
2022-12-11T11:23:30.179Z,0.80
2022-12-11T11:26:01.607Z,0.70
2022-12-11T11:28:31.730Z,0.80
2022-12-11T11:31:06.419Z,0.90
2022-12-11T11:33:37.803Z,0.90
2022-12-11T11:36:08.451Z,0.80
2022-12-11T11:38:40.354Z,0.60
2022-12-11T11:41:18.069Z,0.50
2022-12-11T11:43:49.928Z,0.40
2022-12-11T11:46:23.180Z,0.40
2022-12-11T11:49:01.172Z,0.40
2022-12-11T11:51:34.844Z,0.40
2022-12-11T11:54:10.470Z,0.50
2022-12-11T11:56:39.371Z,0.50
2022-12-11T11:59:15.209Z,0.60
2022-12-11T12:01:44.063Z,0.60
2022-12-11T12:04:13.782Z,0.60
2022-12-11T12:07:03.270Z,0.60
2022-12-11T12:09:42.434Z,0.70
2022-12-11T12:12:22.956Z,0.60
2022-12-11T12:15:03.254Z,0.50
2022-12-11T12:17:41.179Z,0.50
2022-12-11T12:20:18.571Z,0.50
2022-12-11T12:23:33.337Z,0.50
2022-12-11T12:26:10.045Z,0.50
2022-12-11T12:28:46.126Z,0.50
2022-12-11T12:31:25.949Z,0.50
2022-12-11T12:34:02.282Z,0.40
2022-12-11T12:36:37.891Z,0.30
2022-12-11T12:39:15.794Z,0.30
2022-12-11T12:41:53.730Z,0.30
2022-12-11T12:44:24.973Z,0.30
2022-12-11T12:47:00.334Z,0.40
2022-12-11T12:49:41.247Z,0.30
2022-12-11T12:52:16.252Z,0.40
2022-12-11T12:55:07.543Z,0.40
2022-12-11T12:57:36.560Z,0.20
2022-12-11T13:00:11.050Z,0.50
2022-12-11T13:02:49.885Z,0.50
2022-12-11T13:05:24.107Z,0.50
2022-12-11T13:07:56.446Z,0.50
2022-12-11T13:10:30.932Z,0.50
2022-12-11T13:12:59.745Z,0.60
2022-12-11T13:15:36.929Z,0.60
2022-12-11T13:18:27.227Z,0.50
2022-12-11T13:20:55.270Z,0.50
2022-12-11T13:23:30.739Z,0.60
2022-12-11T13:26:00.785Z,0.50
2022-12-11T13:28:32.315Z,0.50
2022-12-11T13:31:08.312Z,0.60
2022-12-11T13:33:43.560Z,0.60
2022-12-11T13:36:32.257Z,0.60
2022-12-11T13:39:05.630Z,0.50
2022-12-11T13:41:36.476Z,0.60
2022-12-11T13:44:07.079Z,0.60
2022-12-11T13:46:38.559Z,0.60
2022-12-11T13:49:08.354Z,0.70
2022-12-11T13:51:37.921Z,0.80
2022-12-11T13:54:18.489Z,0.70
2022-12-11T13:57:01.474Z,0.70
2022-12-11T13:59:33.056Z,0.70
2022-12-11T14:02:06.986Z,0.60
2022-12-11T14:04:36.736Z,0.60
2022-12-11T14:07:08.686Z,0.40
2022-12-11T14:09:41.184Z,0.90
2022-12-11T14:12:17.673Z,0.30
2022-12-11T14:14:50.856Z,0.30
2022-12-11T14:17:25.314Z,0.30
2022-12-11T14:19:54.677Z,0.20
2022-12-11T14:22:24.670Z,0.20
2022-12-11T14:24:55.858Z,0.20
2022-12-11T14:27:24.561Z,0.10
2022-12-11T14:29:52.638Z,0.10
2022-12-11T14:32:25.932Z,0.10
2022-12-11T14:34:55.346Z,0.20
2022-12-11T14:37:25.168Z,0.30
2022-12-11T14:39:59.871Z,0.30
2022-12-11T14:42:31.715Z,0.40
2022-12-11T14:45:04.913Z,0.50
2022-12-11T14:47:39.050Z,0.40
2022-12-11T14:50:09.999Z,0.30
2022-12-11T14:52:42.208Z,0.20
2022-12-11T14:55:16.987Z,0.20
2022-12-11T14:57:48.653Z,0.10
2022-12-11T15:00:25.164Z,0.10
2022-12-11T15:03:04.080Z,0.20
2022-12-11T15:05:40.342Z,0.20
2022-12-11T15:08:24.704Z,0.20
2022-12-11T15:11:07.093Z,0.10
2022-12-11T15:13:37.505Z,0.00
2022-12-11T15:16:08.405Z,-0.10
2022-12-11T15:18:40.144Z,-0.20
2022-12-11T15:21:10.768Z,-0.30
2022-12-11T15:23:55.912Z,-0.30
2022-12-11T15:26:36.638Z,-0.20
2022-12-11T15:29:07.484Z,-0.20
2022-12-11T15:31:36.230Z,-0.10
2022-12-11T15:34:04.239Z,0.00
2022-12-11T15:36:35.030Z,0.00
2022-12-11T15:39:04.079Z,0.00
2022-12-11T15:41:34.616Z,-0.10
2022-12-11T15:44:05.514Z,-0.10
2022-12-11T15:46:38.260Z,0.00
2022-12-11T15:49:12.524Z,-0.10
2022-12-11T15:51:43.096Z,-0.10
2022-12-11T15:54:11.896Z,0.00
2022-12-11T15:56:40.410Z,0.00
2022-12-11T15:59:11.833Z,0.10
2022-12-11T16:01:39.804Z,0.20
2022-12-11T16:04:07.821Z,0.30
2022-12-11T16:06:35.805Z,0.40
2022-12-11T16:09:05.167Z,0.40
2022-12-11T16:11:33.207Z,0.30
2022-12-11T16:14:04.313Z,0.30
2022-12-11T16:16:33.717Z,0.20
2022-12-11T16:19:04.525Z,0.20
2022-12-11T16:21:32.477Z,0.10
2022-12-11T16:24:00.461Z,0.20
2022-12-11T16:26:28.469Z,0.20
2022-12-11T16:28:56.455Z,0.10
2022-12-11T16:31:24.523Z,0.10
2022-12-11T16:33:53.820Z,0.10
2022-12-11T16:36:21.939Z,0.10
2022-12-11T16:38:53.827Z,0.20
2022-12-11T16:41:23.005Z,0.10
2022-12-11T16:43:51.257Z,0.10
2022-12-11T16:46:19.880Z,0.00
2022-12-11T16:48:48.029Z,0.10
2022-12-11T16:51:17.987Z,-0.10
2022-12-11T16:53:46.125Z,-0.10
2022-12-11T16:56:14.257Z,-0.10
2022-12-11T16:58:42.277Z,-0.10
2022-12-11T17:01:12.204Z,0.00
2022-12-11T17:03:40.685Z,0.00
2022-12-11T17:06:10.216Z,-0.10
2022-12-11T17:08:39.912Z,0.00
2022-12-11T17:11:09.889Z,-0.10
2022-12-11T17:13:38.262Z,0.10
2022-12-11T17:16:07.339Z,0.00
2022-12-11T17:18:35.810Z,0.10
2022-12-11T17:21:07.799Z,0.10
2022-12-11T17:23:35.906Z,0.10
2022-12-11T17:26:05.747Z,0.10
2022-12-11T17:28:33.767Z,0.10
2022-12-11T17:31:04.809Z,0.10
2022-12-11T17:33:32.960Z,0.10
2022-12-11T17:36:01.363Z,0.00
2022-12-11T17:38:29.564Z,0.00
2022-12-11T17:40:58.311Z,0.00
2022-12-11T17:43:27.675Z,0.00
2022-12-11T17:45:55.838Z,-0.10
2022-12-11T17:48:23.951Z,-0.10
2022-12-11T17:50:53.851Z,-0.70
2022-12-11T17:53:23.280Z,-0.10
2022-12-11T17:55:52.138Z,0.00
2022-12-11T17:58:22.772Z,0.10
2022-12-11T18:00:55.739Z,0.20
2022-12-11T18:03:23.896Z,0.10
2022-12-11T18:05:55.517Z,0.00
2022-12-11T18:08:26.168Z,0.00
2022-12-11T18:10:54.985Z,-0.10
2022-12-11T18:13:23.306Z,-0.10
2022-12-11T18:16:02.665Z,-0.20
2022-12-11T18:18:30.748Z,-0.30
2022-12-11T18:20:58.808Z,0.50
2022-12-11T18:23:26.822Z,-0.30
2022-12-11T18:25:54.846Z,-0.30
2022-12-11T18:28:23.049Z,-0.40
2022-12-11T18:30:51.097Z,-0.60
2022-12-11T18:33:20.403Z,-0.40
2022-12-11T18:35:50.573Z,-0.40
2022-12-11T18:38:18.711Z,-0.40
2022-12-11T18:40:46.648Z,-0.40
2022-12-11T18:43:14.669Z,-0.40
2022-12-11T18:45:42.736Z,-0.40
2022-12-11T18:48:10.716Z,-0.30
2022-12-11T18:50:45.296Z,-0.20
2022-12-11T18:53:13.433Z,-0.30
2022-12-11T18:55:45.320Z,-0.30
2022-12-11T18:58:15.081Z,-0.30
2022-12-11T19:00:44.432Z,-0.30
2022-12-11T19:03:14.329Z,-0.30
2022-12-11T19:05:43.976Z,-0.20
2022-12-11T19:08:14.043Z,-0.20
2022-12-11T19:10:43.645Z,-0.20
2022-12-11T19:13:12.160Z,-0.20
2022-12-11T19:15:41.492Z,-0.30
2022-12-11T19:18:10.206Z,-0.30
2022-12-11T19:20:49.311Z,-0.20
2022-12-11T19:23:19.481Z,-0.30
2022-12-11T19:25:49.057Z,-0.30
2022-12-11T19:28:17.757Z,-0.20
2022-12-11T19:30:46.246Z,-0.10
2022-12-11T19:33:14.246Z,-0.10
2022-12-11T19:35:42.246Z,-0.10
2022-12-11T19:38:10.605Z,0.00
2022-12-11T19:40:42.893Z,-0.10
2022-12-11T19:43:11.212Z,-0.10
2022-12-11T19:45:39.448Z,-0.10
2022-12-11T19:48:07.686Z,-0.20
2022-12-11T19:50:36.981Z,-0.20
2022-12-11T19:53:05.349Z,-0.10
2022-12-11T19:55:33.563Z,-0.10
2022-12-11T19:58:02.856Z,-0.20
2022-12-11T20:00:30.871Z,-0.20
2022-12-11T20:02:58.870Z,-0.20
2022-12-11T20:05:26.912Z,-0.20
2022-12-11T20:07:54.882Z,-0.20
2022-12-11T20:10:22.865Z,-0.30
2022-12-11T20:12:52.515Z,-0.40
2022-12-11T20:15:21.823Z,-0.40
2022-12-11T20:17:53.152Z,-0.50
2022-12-11T20:20:21.180Z,-0.50
2022-12-11T20:22:49.183Z,-0.50
2022-12-11T20:25:17.185Z,-0.40
2022-12-11T20:27:45.212Z,-0.40
2022-12-11T20:30:14.356Z,-0.50
2022-12-11T20:32:43.702Z,-0.50
2022-12-11T20:35:12.780Z,-0.50
2022-12-11T20:37:40.843Z,-0.40
2022-12-11T20:40:09.713Z,-0.30
2022-12-11T20:42:37.691Z,-0.40
2022-12-11T20:45:06.680Z,-0.40
2022-12-11T20:47:34.662Z,-0.50
2022-12-11T20:50:05.211Z,-0.50
2022-12-11T20:52:33.192Z,-0.50
2022-12-11T20:55:01.237Z,-0.50
2022-12-11T20:57:29.179Z,-0.40
2022-12-11T20:59:57.135Z,-0.50
2022-12-11T21:02:25.150Z,-0.40
2022-12-11T21:04:53.282Z,-0.50
2022-12-11T21:07:22.624Z,-0.40
2022-12-11T21:09:50.682Z,-0.40
2022-12-11T21:12:18.718Z,-0.30
2022-12-11T21:14:46.682Z,-0.30
2022-12-11T21:17:14.695Z,-0.30
2022-12-11T21:19:42.642Z,-0.30
2022-12-11T21:22:10.604Z,-0.30
2022-12-11T21:24:40.581Z,-0.30
2022-12-11T21:27:08.666Z,-0.30
2022-12-11T21:29:36.695Z,-0.20
2022-12-11T21:32:05.068Z,-0.20
2022-12-11T21:34:33.109Z,-0.20
2022-12-11T21:37:01.162Z,-0.10
2022-12-11T21:39:29.831Z,-0.10
2022-12-11T21:42:01.374Z,-0.10
2022-12-11T21:47:18.088Z,-0.10
2022-12-11T21:49:46.066Z,-0.10
2022-12-11T21:52:14.506Z,-0.10
2022-12-11T21:54:42.660Z,-0.10
2022-12-11T21:57:11.988Z,-0.20
2022-12-11T21:59:39.968Z,-0.20
2022-12-11T22:02:08.651Z,-0.10
2022-12-11T22:04:37.433Z,-0.10
2022-12-11T22:07:05.446Z,-0.10
2022-12-11T22:09:33.376Z,-0.20
2022-12-11T22:12:01.345Z,-0.10
2022-12-11T22:14:31.382Z,-0.10
2022-12-11T22:16:59.517Z,-0.10
2022-12-11T22:19:32.283Z,-0.10
2022-12-11T22:22:00.775Z,-0.10
2022-12-11T22:24:28.780Z,-0.10
2022-12-11T22:26:56.734Z,0.00
2022-12-11T22:29:24.714Z,0.00
2022-12-11T22:31:54.575Z,-0.10
2022-12-11T22:34:22.895Z,-0.10
2022-12-11T22:36:50.850Z,0.00
2022-12-11T22:39:18.895Z,0.00
2022-12-11T22:41:46.827Z,0.00
2022-12-11T22:44:16.836Z,0.10
2022-12-11T22:46:49.612Z,0.10
2022-12-11T22:49:19.557Z,0.00
2022-12-11T22:51:47.881Z,0.10
2022-12-11T22:54:15.985Z,0.00
2022-12-11T22:56:44.240Z,0.10
2022-12-11T22:59:12.605Z,0.10
2022-12-11T23:01:40.641Z,0.10
2022-12-11T23:04:08.603Z,0.10
2022-12-11T23:06:37.965Z,0.20
2022-12-11T23:09:06.210Z,0.20
2022-12-11T23:11:37.326Z,0.20
2022-12-11T23:14:06.014Z,0.20
2022-12-11T23:16:34.006Z,0.20
2022-12-11T23:19:02.341Z,0.30
2022-12-11T23:21:31.023Z,0.30
2022-12-11T23:24:00.990Z,0.30
2022-12-11T23:26:29.580Z,0.20
2022-12-11T23:28:59.084Z,0.10
2022-12-11T23:31:27.883Z,0.20
2022-12-11T23:33:55.962Z,0.20
2022-12-11T23:36:24.010Z,0.30
2022-12-11T23:38:54.788Z,0.20
2022-12-11T23:41:24.791Z,0.30
2022-12-11T23:43:53.029Z,0.30
2022-12-11T23:46:22.690Z,0.30
2022-12-11T23:48:51.673Z,0.20
2022-12-11T23:51:21.021Z,0.20
2022-12-11T23:53:49.119Z,0.10
2022-12-11T23:56:20.008Z,0.20
2022-12-11T23:58:49.553Z,0.20
